sensor_id;sensor_type;location;lat;lon;timestamp;P1;durP1;ratioP1;P2;durP2;ratioP2
51382;SDS011;37475;43.358;1.248;2023-04-01T00:00:58;13.02;;;2.33;;
51382;SDS011;37475;43.358;1.248;2023-04-01T00:03:25;14.88;;;2.42;;
51382;SDS011;37475;43.358;1.248;2023-04-01T00:05:52;21.95;;;2.70;;
51382;SDS011;37475;43.358;1.248;2023-04-01T00:08:23;10.35;;;1.88;;
51382;SDS011;37475;43.358;1.248;2023-04-01T00:10:50;10.88;;;2.08;;
51382;SDS011;37475;43.358;1.248;2023-04-01T00:13:16;12.65;;;1.80;;
51382;SDS011;37475;43.358;1.248;2023-04-01T00:15:43;12.95;;;2.33;;
51382;SDS011;37475;43.358;1.248;2023-04-01T00:18:09;17.50;;;2.90;;
51382;SDS011;37475;43.358;1.248;2023-04-01T00:20:36;15.10;;;2.53;;
51382;SDS011;37475;43.358;1.248;2023-04-01T00:23:02;19.52;;;2.42;;
51382;SDS011;37475;43.358;1.248;2023-04-01T00:25:28;16.45;;;2.28;;
51382;SDS011;37475;43.358;1.248;2023-04-01T00:27:54;20.38;;;3.08;;
51382;SDS011;37475;43.358;1.248;2023-04-01T00:30:20;20.98;;;3.70;;
51382;SDS011;37475;43.358;1.248;2023-04-01T00:32:45;18.60;;;2.55;;
51382;SDS011;37475;43.358;1.248;2023-04-01T00:35:11;18.67;;;3.00;;
51382;SDS011;37475;43.358;1.248;2023-04-01T00:37:37;22.83;;;3.00;;
51382;SDS011;37475;43.358;1.248;2023-04-01T00:40:07;19.75;;;3.42;;
51382;SDS011;37475;43.358;1.248;2023-04-01T00:42:52;16.63;;;2.75;;
51382;SDS011;37475;43.358;1.248;2023-04-01T00:45:23;19.20;;;2.85;;
51382;SDS011;37475;43.358;1.248;2023-04-01T00:48:07;21.40;;;3.55;;
51382;SDS011;37475;43.358;1.248;2023-04-01T00:50:39;20.92;;;3.05;;
51382;SDS011;37475;43.358;1.248;2023-04-01T00:53:27;17.52;;;2.55;;
51382;SDS011;37475;43.358;1.248;2023-04-01T00:55:57;22.33;;;2.92;;
51382;SDS011;37475;43.358;1.248;2023-04-01T00:58:29;17.73;;;3.80;;
51382;SDS011;37475;43.358;1.248;2023-04-01T01:01:00;19.67;;;2.80;;
51382;SDS011;37475;43.358;1.248;2023-04-01T01:03:27;16.05;;;3.00;;
51382;SDS011;37475;43.358;1.248;2023-04-01T01:16:58;19.65;;;3.17;;
51382;SDS011;37475;43.358;1.248;2023-04-01T01:28:32;18.80;;;2.70;;
51382;SDS011;37475;43.358;1.248;2023-04-01T01:36:56;18.33;;;2.63;;
51382;SDS011;37475;43.358;1.248;2023-04-01T01:39:28;19.58;;;2.72;;
51382;SDS011;37475;43.358;1.248;2023-04-01T01:41:57;19.60;;;2.47;;
51382;SDS011;37475;43.358;1.248;2023-04-01T01:44:32;19.92;;;3.08;;
51382;SDS011;37475;43.358;1.248;2023-04-01T01:46:59;24.08;;;3.53;;
51382;SDS011;37475;43.358;1.248;2023-04-01T01:49:26;14.88;;;2.80;;
51382;SDS011;37475;43.358;1.248;2023-04-01T01:51:55;19.75;;;2.55;;
51382;SDS011;37475;43.358;1.248;2023-04-01T01:54:21;17.08;;;2.63;;
51382;SDS011;37475;43.358;1.248;2023-04-01T01:56:48;25.63;;;2.97;;
51382;SDS011;37475;43.358;1.248;2023-04-01T01:59:20;19.73;;;3.22;;
51382;SDS011;37475;43.358;1.248;2023-04-01T02:01:49;15.25;;;2.83;;
51382;SDS011;37475;43.358;1.248;2023-04-01T02:04:18;18.73;;;2.60;;
51382;SDS011;37475;43.358;1.248;2023-04-01T02:07:02;19.23;;;3.25;;
51382;SDS011;37475;43.358;1.248;2023-04-01T02:09:32;18.75;;;2.95;;
51382;SDS011;37475;43.358;1.248;2023-04-01T02:12:00;22.65;;;3.03;;
51382;SDS011;37475;43.358;1.248;2023-04-01T02:14:37;16.77;;;3.03;;
51382;SDS011;37475;43.358;1.248;2023-04-01T02:17:16;25.23;;;3.40;;
51382;SDS011;37475;43.358;1.248;2023-04-01T02:22:45;24.45;;;3.60;;
51382;SDS011;37475;43.358;1.248;2023-04-01T02:25:27;15.68;;;2.63;;
51382;SDS011;37475;43.358;1.248;2023-04-01T02:27:58;21.77;;;3.58;;
51382;SDS011;37475;43.358;1.248;2023-04-01T02:30:26;19.02;;;2.83;;
51382;SDS011;37475;43.358;1.248;2023-04-01T02:32:55;22.95;;;3.03;;
51382;SDS011;37475;43.358;1.248;2023-04-01T02:35:22;23.40;;;3.38;;
51382;SDS011;37475;43.358;1.248;2023-04-01T02:37:49;21.80;;;3.00;;
51382;SDS011;37475;43.358;1.248;2023-04-01T02:40:17;19.27;;;3.42;;
51382;SDS011;37475;43.358;1.248;2023-04-01T02:42:43;22.55;;;3.58;;
51382;SDS011;37475;43.358;1.248;2023-04-01T02:45:10;25.67;;;3.10;;
51382;SDS011;37475;43.358;1.248;2023-04-01T02:47:37;24.77;;;3.22;;
51382;SDS011;37475;43.358;1.248;2023-04-01T02:50:02;26.80;;;3.20;;
51382;SDS011;37475;43.358;1.248;2023-04-01T02:52:29;21.10;;;4.03;;
51382;SDS011;37475;43.358;1.248;2023-04-01T02:54:56;17.00;;;3.28;;
51382;SDS011;37475;43.358;1.248;2023-04-01T02:57:23;18.92;;;3.25;;
51382;SDS011;37475;43.358;1.248;2023-04-01T02:59:49;17.15;;;3.10;;
51382;SDS011;37475;43.358;1.248;2023-04-01T03:02:16;20.17;;;2.50;;
51382;SDS011;37475;43.358;1.248;2023-04-01T03:04:42;24.65;;;3.25;;
51382;SDS011;37475;43.358;1.248;2023-04-01T03:07:09;22.65;;;3.15;;
51382;SDS011;37475;43.358;1.248;2023-04-01T03:09:35;19.05;;;3.10;;
51382;SDS011;37475;43.358;1.248;2023-04-01T03:12:03;21.05;;;2.92;;
51382;SDS011;37475;43.358;1.248;2023-04-01T03:14:29;20.85;;;3.28;;
51382;SDS011;37475;43.358;1.248;2023-04-01T03:16:55;20.90;;;3.10;;
51382;SDS011;37475;43.358;1.248;2023-04-01T03:19:21;21.55;;;2.63;;
51382;SDS011;37475;43.358;1.248;2023-04-01T03:21:46;18.85;;;3.35;;
51382;SDS011;37475;43.358;1.248;2023-04-01T03:24:12;15.60;;;2.88;;
51382;SDS011;37475;43.358;1.248;2023-04-01T03:26:38;17.80;;;2.78;;
51382;SDS011;37475;43.358;1.248;2023-04-01T03:29:04;24.67;;;3.15;;
51382;SDS011;37475;43.358;1.248;2023-04-01T03:31:30;23.23;;;3.55;;
51382;SDS011;37475;43.358;1.248;2023-04-01T03:33:56;22.27;;;3.60;;
51382;SDS011;37475;43.358;1.248;2023-04-01T03:36:22;21.77;;;3.72;;
51382;SDS011;37475;43.358;1.248;2023-04-01T03:38:48;21.58;;;2.72;;
51382;SDS011;37475;43.358;1.248;2023-04-01T03:41:14;20.02;;;3.28;;
51382;SDS011;37475;43.358;1.248;2023-04-01T03:43:41;19.88;;;3.10;;
51382;SDS011;37475;43.358;1.248;2023-04-01T03:46:07;18.73;;;2.67;;
51382;SDS011;37475;43.358;1.248;2023-04-01T03:48:33;20.45;;;3.17;;
51382;SDS011;37475;43.358;1.248;2023-04-01T03:50:59;20.17;;;2.28;;
51382;SDS011;37475;43.358;1.248;2023-04-01T03:53:25;18.35;;;2.40;;
51382;SDS011;37475;43.358;1.248;2023-04-01T03:55:52;22.48;;;3.10;;
51382;SDS011;37475;43.358;1.248;2023-04-01T03:58:18;14.35;;;2.05;;
51382;SDS011;37475;43.358;1.248;2023-04-01T04:00:44;18.77;;;2.53;;
51382;SDS011;37475;43.358;1.248;2023-04-01T04:03:11;19.67;;;2.70;;
51382;SDS011;37475;43.358;1.248;2023-04-01T04:05:37;24.70;;;3.28;;
51382;SDS011;37475;43.358;1.248;2023-04-01T04:08:03;26.65;;;3.10;;
51382;SDS011;37475;43.358;1.248;2023-04-01T04:10:29;20.33;;;3.28;;
51382;SDS011;37475;43.358;1.248;2023-04-01T04:12:55;21.83;;;2.97;;
51382;SDS011;37475;43.358;1.248;2023-04-01T04:15:21;22.75;;;2.72;;
51382;SDS011;37475;43.358;1.248;2023-04-01T04:17:48;17.23;;;2.92;;
51382;SDS011;37475;43.358;1.248;2023-04-01T04:20:13;17.10;;;3.00;;
51382;SDS011;37475;43.358;1.248;2023-04-01T04:22:40;21.40;;;3.65;;
51382;SDS011;37475;43.358;1.248;2023-04-01T04:25:06;21.75;;;2.92;;
51382;SDS011;37475;43.358;1.248;2023-04-01T04:27:33;14.23;;;2.72;;
51382;SDS011;37475;43.358;1.248;2023-04-01T04:30:00;18.58;;;3.08;;
51382;SDS011;37475;43.358;1.248;2023-04-01T04:32:26;15.63;;;2.28;;
51382;SDS011;37475;43.358;1.248;2023-04-01T04:34:51;19.02;;;3.10;;
51382;SDS011;37475;43.358;1.248;2023-04-01T04:37:17;16.42;;;2.38;;
51382;SDS011;37475;43.358;1.248;2023-04-01T04:39:43;24.17;;;3.25;;
51382;SDS011;37475;43.358;1.248;2023-04-01T04:42:09;15.93;;;2.45;;
51382;SDS011;37475;43.358;1.248;2023-04-01T04:44:34;17.90;;;3.45;;
51382;SDS011;37475;43.358;1.248;2023-04-01T04:47:00;21.05;;;3.20;;
51382;SDS011;37475;43.358;1.248;2023-04-01T04:49:27;20.55;;;2.67;;
51382;SDS011;37475;43.358;1.248;2023-04-01T04:51:52;23.95;;;3.75;;
51382;SDS011;37475;43.358;1.248;2023-04-01T04:54:18;17.92;;;2.60;;
51382;SDS011;37475;43.358;1.248;2023-04-01T04:56:44;19.13;;;3.38;;
51382;SDS011;37475;43.358;1.248;2023-04-01T04:59:10;16.30;;;2.42;;
51382;SDS011;37475;43.358;1.248;2023-04-01T05:01:37;22.05;;;3.10;;
51382;SDS011;37475;43.358;1.248;2023-04-01T05:04:03;17.30;;;2.90;;
51382;SDS011;37475;43.358;1.248;2023-04-01T05:06:29;16.20;;;2.40;;
51382;SDS011;37475;43.358;1.248;2023-04-01T05:08:56;20.92;;;2.30;;
51382;SDS011;37475;43.358;1.248;2023-04-01T05:11:22;14.40;;;2.00;;
51382;SDS011;37475;43.358;1.248;2023-04-01T05:13:48;18.73;;;2.78;;
51382;SDS011;37475;43.358;1.248;2023-04-01T05:16:16;18.63;;;3.28;;
51382;SDS011;37475;43.358;1.248;2023-04-01T05:18:45;22.33;;;3.17;;
51382;SDS011;37475;43.358;1.248;2023-04-01T05:21:12;20.40;;;3.28;;
51382;SDS011;37475;43.358;1.248;2023-04-01T05:23:40;18.83;;;2.60;;
51382;SDS011;37475;43.358;1.248;2023-04-01T05:26:06;21.55;;;3.47;;
51382;SDS011;37475;43.358;1.248;2023-04-01T05:28:37;21.77;;;2.63;;
51382;SDS011;37475;43.358;1.248;2023-04-01T05:31:04;14.57;;;2.55;;
51382;SDS011;37475;43.358;1.248;2023-04-01T05:33:32;19.60;;;2.67;;
51382;SDS011;37475;43.358;1.248;2023-04-01T05:36:08;16.80;;;2.50;;
51382;SDS011;37475;43.358;1.248;2023-04-01T05:38:37;21.83;;;3.15;;
51382;SDS011;37475;43.358;1.248;2023-04-01T05:41:03;21.85;;;3.13;;
51382;SDS011;37475;43.358;1.248;2023-04-01T05:43:29;10.10;;;1.88;;
51382;SDS011;37475;43.358;1.248;2023-04-01T05:45:55;17.02;;;2.40;;
51382;SDS011;37475;43.358;1.248;2023-04-01T05:48:22;23.45;;;2.88;;
51382;SDS011;37475;43.358;1.248;2023-04-01T05:50:48;18.67;;;2.60;;
51382;SDS011;37475;43.358;1.248;2023-04-01T05:53:14;18.30;;;2.60;;
51382;SDS011;37475;43.358;1.248;2023-04-01T05:55:40;14.65;;;2.60;;
51382;SDS011;37475;43.358;1.248;2023-04-01T05:58:05;12.38;;;2.30;;
51382;SDS011;37475;43.358;1.248;2023-04-01T06:00:31;20.45;;;2.45;;
51382;SDS011;37475;43.358;1.248;2023-04-01T06:03:00;16.33;;;2.65;;
51382;SDS011;37475;43.358;1.248;2023-04-01T06:05:29;11.85;;;1.67;;
51382;SDS011;37475;43.358;1.248;2023-04-01T06:08:08;12.80;;;2.38;;
51382;SDS011;37475;43.358;1.248;2023-04-01T06:10:55;15.60;;;2.13;;
51382;SDS011;37475;43.358;1.248;2023-04-01T06:26:43;15.68;;;2.53;;
51382;SDS011;37475;43.358;1.248;2023-04-01T06:43:56;17.27;;;2.78;;
51382;SDS011;37475;43.358;1.248;2023-04-01T06:53:19;17.83;;;2.67;;
51382;SDS011;37475;43.358;1.248;2023-04-01T06:55:55;13.55;;;2.70;;
51382;SDS011;37475;43.358;1.248;2023-04-01T06:58:29;13.18;;;2.22;;
51382;SDS011;37475;43.358;1.248;2023-04-01T07:01:14;9.90;;;2.25;;
51382;SDS011;37475;43.358;1.248;2023-04-01T07:04:41;13.93;;;2.15;;
51382;SDS011;37475;43.358;1.248;2023-04-01T07:09:55;19.23;;;2.55;;
51382;SDS011;37475;43.358;1.248;2023-04-01T07:15:26;15.60;;;2.05;;
51382;SDS011;37475;43.358;1.248;2023-04-01T07:18:04;20.98;;;2.75;;
51382;SDS011;37475;43.358;1.248;2023-04-01T07:21:00;16.55;;;2.83;;
51382;SDS011;37475;43.358;1.248;2023-04-01T07:23:29;16.60;;;2.85;;
51382;SDS011;37475;43.358;1.248;2023-04-01T07:26:11;14.18;;;2.65;;
51382;SDS011;37475;43.358;1.248;2023-04-01T07:28:48;8.90;;;1.55;;
51382;SDS011;37475;43.358;1.248;2023-04-01T07:39:46;15.50;;;2.13;;
51382;SDS011;37475;43.358;1.248;2023-04-01T07:42:29;17.00;;;2.42;;
51382;SDS011;37475;43.358;1.248;2023-04-01T07:45:30;13.98;;;2.50;;
51382;SDS011;37475;43.358;1.248;2023-04-01T07:48:44;19.00;;;2.08;;
51382;SDS011;37475;43.358;1.248;2023-04-01T07:51:32;14.23;;;2.85;;
51382;SDS011;37475;43.358;1.248;2023-04-01T07:54:10;13.82;;;2.00;;
51382;SDS011;37475;43.358;1.248;2023-04-01T07:57:42;17.98;;;2.58;;
51382;SDS011;37475;43.358;1.248;2023-04-01T08:00:31;19.13;;;2.45;;
51382;SDS011;37475;43.358;1.248;2023-04-01T08:03:28;14.35;;;2.28;;
51382;SDS011;37475;43.358;1.248;2023-04-01T08:12:11;14.32;;;2.90;;
51382;SDS011;37475;43.358;1.248;2023-04-01T08:20:25;12.90;;;2.50;;
51382;SDS011;37475;43.358;1.248;2023-04-01T08:23:19;9.10;;;1.70;;
51382;SDS011;37475;43.358;1.248;2023-04-01T08:26:08;12.18;;;2.53;;
51382;SDS011;37475;43.358;1.248;2023-04-01T08:28:44;7.43;;;2.10;;
51382;SDS011;37475;43.358;1.248;2023-04-01T08:31:37;20.70;;;2.25;;
51382;SDS011;37475;43.358;1.248;2023-04-01T08:34:10;9.93;;;1.98;;
51382;SDS011;37475;43.358;1.248;2023-04-01T08:36:49;13.60;;;2.40;;
51382;SDS011;37475;43.358;1.248;2023-04-01T08:39:23;10.80;;;2.25;;
51382;SDS011;37475;43.358;1.248;2023-04-01T08:45:03;11.00;;;1.88;;
51382;SDS011;37475;43.358;1.248;2023-04-01T08:50:30;10.77;;;2.28;;
51382;SDS011;37475;43.358;1.248;2023-04-01T08:59:13;9.85;;;1.67;;
51382;SDS011;37475;43.358;1.248;2023-04-01T09:04:33;11.07;;;2.30;;
51382;SDS011;37475;43.358;1.248;2023-04-01T09:07:39;5.80;;;1.38;;
51382;SDS011;37475;43.358;1.248;2023-04-01T09:17:13;12.73;;;2.08;;
51382;SDS011;37475;43.358;1.248;2023-04-01T09:44:23;14.52;;;1.98;;
51382;SDS011;37475;43.358;1.248;2023-04-01T10:27:56;9.02;;;1.27;;
51382;SDS011;37475;43.358;1.248;2023-04-01T10:45:45;4.22;;;0.85;;
51382;SDS011;37475;43.358;1.248;2023-04-01T10:51:59;7.55;;;1.30;;
51382;SDS011;37475;43.358;1.248;2023-04-01T11:19:15;6.13;;;1.35;;
51382;SDS011;37475;43.358;1.248;2023-04-01T11:25:23;4.60;;;1.17;;
51382;SDS011;37475;43.358;1.248;2023-04-01T11:28:22;4.97;;;1.02;;
51382;SDS011;37475;43.358;1.248;2023-04-01T11:31:35;8.50;;;1.13;;
51382;SDS011;37475;43.358;1.248;2023-04-01T11:34:16;8.13;;;1.33;;
51382;SDS011;37475;43.358;1.248;2023-04-01T11:45:21;6.22;;;1.13;;
51382;SDS011;37475;43.358;1.248;2023-04-01T11:47:58;4.35;;;0.75;;
51382;SDS011;37475;43.358;1.248;2023-04-01T11:53:37;4.00;;;1.10;;
51382;SDS011;37475;43.358;1.248;2023-04-01T11:56:33;5.05;;;0.80;;
51382;SDS011;37475;43.358;1.248;2023-04-01T12:10:38;6.22;;;1.10;;
51382;SDS011;37475;43.358;1.248;2023-04-01T12:24:44;4.05;;;0.73;;
51382;SDS011;37475;43.358;1.248;2023-04-01T12:27:32;5.75;;;1.10;;
51382;SDS011;37475;43.358;1.248;2023-04-01T12:44:29;3.30;;;0.80;;
51382;SDS011;37475;43.358;1.248;2023-04-01T12:47:27;10.27;;;1.48;;
51382;SDS011;37475;43.358;1.248;2023-04-01T12:50:10;6.05;;;0.98;;
51382;SDS011;37475;43.358;1.248;2023-04-01T12:55:59;3.13;;;0.60;;
51382;SDS011;37475;43.358;1.248;2023-04-01T13:01:57;2.85;;;1.00;;
51382;SDS011;37475;43.358;1.248;2023-04-01T13:13:38;6.45;;;0.90;;
51382;SDS011;37475;43.358;1.248;2023-04-01T13:16:42;4.18;;;0.95;;
51382;SDS011;37475;43.358;1.248;2023-04-01T13:25:46;4.78;;;0.95;;
51382;SDS011;37475;43.358;1.248;2023-04-01T13:28:32;4.13;;;0.60;;
51382;SDS011;37475;43.358;1.248;2023-04-01T13:42:37;6.13;;;1.05;;
51382;SDS011;37475;43.358;1.248;2023-04-01T13:45:24;3.05;;;0.93;;
51382;SDS011;37475;43.358;1.248;2023-04-01T13:50:34;5.53;;;1.30;;
51382;SDS011;37475;43.358;1.248;2023-04-01T14:31:34;3.75;;;0.75;;
51382;SDS011;37475;43.358;1.248;2023-04-01T14:40:55;4.68;;;0.70;;
51382;SDS011;37475;43.358;1.248;2023-04-01T14:53:43;4.40;;;1.00;;
51382;SDS011;37475;43.358;1.248;2023-04-01T14:59:39;4.80;;;0.80;;
51382;SDS011;37475;43.358;1.248;2023-04-01T15:05:11;6.22;;;1.00;;
51382;SDS011;37475;43.358;1.248;2023-04-01T15:13:24;6.28;;;1.00;;
51382;SDS011;37475;43.358;1.248;2023-04-01T15:40:20;7.85;;;1.42;;
51382;SDS011;37475;43.358;1.248;2023-04-01T16:01:10;4.60;;;0.85;;
51382;SDS011;37475;43.358;1.248;2023-04-01T16:16:17;2.42;;;0.65;;
51382;SDS011;37475;43.358;1.248;2023-04-01T16:21:51;2.72;;;0.70;;
51382;SDS011;37475;43.358;1.248;2023-04-01T16:24:42;3.35;;;0.88;;
51382;SDS011;37475;43.358;1.248;2023-04-01T16:27:24;1.80;;;0.77;;
51382;SDS011;37475;43.358;1.248;2023-04-01T16:36:44;2.72;;;0.93;;
51382;SDS011;37475;43.358;1.248;2023-04-01T16:45:35;2.95;;;1.08;;
51382;SDS011;37475;43.358;1.248;2023-04-01T16:48:19;6.55;;;1.85;;
51382;SDS011;37475;43.358;1.248;2023-04-01T16:51:00;5.85;;;1.02;;
51382;SDS011;37475;43.358;1.248;2023-04-01T16:53:43;2.53;;;0.93;;
51382;SDS011;37475;43.358;1.248;2023-04-01T16:56:24;3.10;;;1.13;;
51382;SDS011;37475;43.358;1.248;2023-04-01T17:02:16;2.58;;;0.90;;
51382;SDS011;37475;43.358;1.248;2023-04-01T17:05:08;2.78;;;0.93;;
51382;SDS011;37475;43.358;1.248;2023-04-01T18:10:14;5.70;;;1.40;;
51382;SDS011;37475;43.358;1.248;2023-04-01T18:16:14;4.85;;;1.98;;
51382;SDS011;37475;43.358;1.248;2023-04-01T18:19:17;7.28;;;1.83;;
51382;SDS011;37475;43.358;1.248;2023-04-01T18:22:33;4.85;;;1.48;;
51382;SDS011;37475;43.358;1.248;2023-04-01T18:30:50;5.82;;;1.30;;
51382;SDS011;37475;43.358;1.248;2023-04-01T18:33:34;5.15;;;1.25;;
51382;SDS011;37475;43.358;1.248;2023-04-01T18:39:07;2.60;;;0.90;;
51382;SDS011;37475;43.358;1.248;2023-04-01T18:42:14;4.72;;;0.90;;
51382;SDS011;37475;43.358;1.248;2023-04-01T18:44:46;6.30;;;1.23;;
51382;SDS011;37475;43.358;1.248;2023-04-01T18:56:05;6.32;;;0.90;;
51382;SDS011;37475;43.358;1.248;2023-04-01T19:07:45;4.20;;;0.70;;
51382;SDS011;37475;43.358;1.248;2023-04-01T19:18:43;2.03;;;0.80;;
51382;SDS011;37475;43.358;1.248;2023-04-01T19:21:42;2.83;;;0.95;;
51382;SDS011;37475;43.358;1.248;2023-04-01T19:44:58;2.97;;;0.90;;
51382;SDS011;37475;43.358;1.248;2023-04-01T19:51:02;8.00;;;1.27;;
51382;SDS011;37475;43.358;1.248;2023-04-01T19:53:47;3.67;;;0.90;;
51382;SDS011;37475;43.358;1.248;2023-04-01T19:56:44;3.38;;;1.10;;
51382;SDS011;37475;43.358;1.248;2023-04-01T20:05:04;5.30;;;1.25;;
51382;SDS011;37475;43.358;1.248;2023-04-01T20:08:16;7.15;;;1.20;;
51382;SDS011;37475;43.358;1.248;2023-04-01T20:16:22;3.60;;;0.85;;
51382;SDS011;37475;43.358;1.248;2023-04-01T20:19:39;5.57;;;1.50;;
51382;SDS011;37475;43.358;1.248;2023-04-01T20:25:21;4.90;;;1.02;;
51382;SDS011;37475;43.358;1.248;2023-04-01T20:28:09;6.30;;;1.00;;
51382;SDS011;37475;43.358;1.248;2023-04-01T20:59:15;4.32;;;1.30;;
51382;SDS011;37475;43.358;1.248;2023-04-01T21:02:03;3.42;;;0.90;;
51382;SDS011;37475;43.358;1.248;2023-04-01T21:07:56;8.68;;;1.20;;
51382;SDS011;37475;43.358;1.248;2023-04-01T21:10:40;7.47;;;1.30;;
51382;SDS011;37475;43.358;1.248;2023-04-01T21:13:15;2.17;;;0.80;;
51382;SDS011;37475;43.358;1.248;2023-04-01T21:16:31;7.25;;;1.20;;
51382;SDS011;37475;43.358;1.248;2023-04-01T21:22:19;7.03;;;1.15;;
51382;SDS011;37475;43.358;1.248;2023-04-01T21:25:03;7.90;;;1.35;;
51382;SDS011;37475;43.358;1.248;2023-04-01T21:28:16;4.78;;;1.13;;
51382;SDS011;37475;43.358;1.248;2023-04-01T21:30:43;7.68;;;1.35;;
51382;SDS011;37475;43.358;1.248;2023-04-01T21:34:03;8.95;;;1.30;;
51382;SDS011;37475;43.358;1.248;2023-04-01T21:39:47;4.90;;;1.10;;
51382;SDS011;37475;43.358;1.248;2023-04-01T21:47:56;6.70;;;1.13;;
51382;SDS011;37475;43.358;1.248;2023-04-01T21:50:50;8.25;;;1.38;;
51382;SDS011;37475;43.358;1.248;2023-04-01T22:08:04;6.03;;;1.02;;
51382;SDS011;37475;43.358;1.248;2023-04-01T22:13:39;8.38;;;1.30;;
51382;SDS011;37475;43.358;1.248;2023-04-01T22:27:16;6.90;;;1.25;;
51382;SDS011;37475;43.358;1.248;2023-04-01T22:29:56;8.10;;;1.33;;
51382;SDS011;37475;43.358;1.248;2023-04-01T22:32:54;12.80;;;1.38;;
51382;SDS011;37475;43.358;1.248;2023-04-01T22:38:22;10.30;;;1.75;;
51382;SDS011;37475;43.358;1.248;2023-04-01T22:45:05;8.48;;;1.23;;
51382;SDS011;37475;43.358;1.248;2023-04-01T22:50:39;11.82;;;1.70;;
51382;SDS011;37475;43.358;1.248;2023-04-01T22:55:44;10.80;;;1.75;;
51382;SDS011;37475;43.358;1.248;2023-04-01T22:58:14;8.30;;;1.48;;
51382;SDS011;37475;43.358;1.248;2023-04-01T23:05:56;13.38;;;1.67;;
51382;SDS011;37475;43.358;1.248;2023-04-01T23:11:02;6.78;;;1.20;;
51382;SDS011;37475;43.358;1.248;2023-04-01T23:13:33;6.60;;;1.40;;
51382;SDS011;37475;43.358;1.248;2023-04-01T23:16:06;8.02;;;0.90;;
51382;SDS011;37475;43.358;1.248;2023-04-01T23:23:58;8.68;;;1.42;;
51382;SDS011;37475;43.358;1.248;2023-04-01T23:27:05;8.18;;;1.05;;
51382;SDS011;37475;43.358;1.248;2023-04-01T23:29:44;4.72;;;1.10;;
51382;SDS011;37475;43.358;1.248;2023-04-01T23:32:14;8.15;;;1.20;;
51382;SDS011;37475;43.358;1.248;2023-04-01T23:34:50;4.22;;;0.98;;
51382;SDS011;37475;43.358;1.248;2023-04-01T23:37:21;3.58;;;1.10;;
51382;SDS011;37475;43.358;1.248;2023-04-01T23:39:53;7.88;;;1.60;;
51382;SDS011;37475;43.358;1.248;2023-04-01T23:44:59;6.70;;;1.10;;
51382;SDS011;37475;43.358;1.248;2023-04-01T23:47:31;2.50;;;0.73;;
51382;SDS011;37475;43.358;1.248;2023-04-01T23:50:09;4.13;;;1.00;;
51382;SDS011;37475;43.358;1.248;2023-04-01T23:52:39;3.42;;;0.82;;
51382;SDS011;37475;43.358;1.248;2023-04-01T23:55:22;3.03;;;1.10;;
51382;SDS011;37475;43.358;1.248;2023-04-01T23:58:41;3.13;;;1.03;;
